createdAt,value
2019-03-05T00:02:30.234Z,97289.14
2019-03-05T00:05:13.912Z,97297.42
2019-03-05T00:07:46.953Z,97299.39
2019-03-05T00:10:21.168Z,97299.58
2019-03-05T00:12:55.206Z,97304.09
2019-03-05T00:15:29.035Z,97305.36
2019-03-05T00:18:02.680Z,97310.06
2019-03-05T00:20:35.321Z,97318.66
2019-03-05T00:23:08.735Z,97317.16
2019-03-05T00:25:43.011Z,97329.22
2019-03-05T00:28:42.384Z,97328.80
2019-03-05T00:31:26.762Z,97332.55
2019-03-05T00:34:42.971Z,97342.51
2019-03-05T00:38:16.259Z,97337.20
2019-03-05T00:41:47.294Z,97345.69
2019-03-05T00:45:13.435Z,97343.71
2019-03-05T00:48:45.916Z,97331.71
2019-03-05T00:52:49.389Z,97331.18
2019-03-05T00:56:05.398Z,97326.81
2019-03-05T00:59:19.127Z,97330.59
2019-03-05T01:02:45.181Z,97333.78
2019-03-05T01:05:55.595Z,97334.20
2019-03-05T01:08:32.450Z,97334.59
2019-03-05T01:11:06.195Z,97341.87
2019-03-05T01:13:40.075Z,97342.70
2019-03-05T01:16:19.267Z,97354.45
2019-03-05T01:18:52.000Z,97345.44
2019-03-05T01:21:25.855Z,97342.95
2019-03-05T01:23:59.150Z,97341.45
2019-03-05T01:26:32.296Z,97333.50
2019-03-05T01:29:05.532Z,97318.80
2019-03-05T01:32:09.597Z,97320.35
2019-03-05T01:35:04.629Z,97326.88
2019-03-05T01:37:37.829Z,97334.23
2019-03-05T01:40:17.510Z,97328.60
2019-03-05T01:42:52.536Z,97320.91
2019-03-05T01:45:25.919Z,97324.94
2019-03-05T01:47:58.477Z,97319.59
2019-03-05T01:50:36.120Z,97325.92
2019-03-05T01:53:10.472Z,97328.52
2019-03-05T01:55:44.822Z,97323.82
2019-03-05T01:58:18.567Z,97317.52
2019-03-05T02:00:58.086Z,97313.58
2019-03-05T02:03:32.489Z,97313.58
2019-03-05T02:06:05.686Z,97310.90
2019-03-05T02:08:38.919Z,97311.93
2019-03-05T02:11:14.865Z,97321.64
2019-03-05T02:13:52.085Z,97316.72
2019-03-05T02:16:26.419Z,97322.67
2019-03-05T02:19:57.422Z,97317.89
2019-03-05T02:22:43.090Z,97310.25
2019-03-05T02:25:51.137Z,97308.66
2019-03-05T02:29:19.343Z,97309.27
2019-03-05T02:32:42.049Z,97311.20
2019-03-05T02:35:43.960Z,97306.97
2019-03-05T02:39:00.024Z,97319.69
2019-03-05T02:41:56.206Z,97305.22
2019-03-05T02:45:19.977Z,97305.93
2019-03-05T02:49:14.120Z,97315.89
2019-03-05T02:52:22.991Z,97320.88
2019-03-05T02:55:54.204Z,97320.91
2019-03-05T02:58:24.966Z,97312.36
2019-03-05T03:01:16.189Z,97315.75
2019-03-05T03:03:52.762Z,97323.68
2019-03-05T03:06:29.218Z,97317.44
2019-03-05T03:10:09.001Z,97322.32
2019-03-05T03:12:42.321Z,97322.47
2019-03-05T03:15:17.582Z,97336.13
2019-03-05T03:17:51.497Z,97335.39
2019-03-05T03:20:25.299Z,97334.08
2019-03-05T03:22:59.294Z,97337.97
2019-03-05T03:25:33.944Z,97344.98
2019-03-05T03:28:08.206Z,97336.38
2019-03-05T03:30:41.673Z,97343.38
2019-03-05T03:33:14.055Z,97340.94
2019-03-05T03:35:47.070Z,97351.13
2019-03-05T03:38:22.646Z,97357.56
2019-03-05T03:40:57.863Z,97358.28
2019-03-05T03:43:32.745Z,97358.75
2019-03-05T03:46:05.923Z,97358.17
2019-03-05T03:48:40.092Z,97360.39
2019-03-05T03:51:13.068Z,97352.05
2019-03-05T03:53:46.734Z,97349.42
2019-03-05T03:56:19.997Z,97348.97
2019-03-05T03:58:53.741Z,97344.55
2019-03-05T04:01:29.322Z,97354.73
2019-03-05T04:04:03.166Z,97358.41
2019-03-05T04:06:36.823Z,97347.60
2019-03-05T04:09:13.623Z,97349.63
2019-03-05T04:11:46.698Z,97352.61
2019-03-05T04:14:20.579Z,97358.79
2019-03-05T04:16:53.659Z,97351.22
2019-03-05T04:19:31.058Z,97351.74
2019-03-05T04:22:05.248Z,97360.84
2019-03-05T04:24:39.351Z,97355.69
2019-03-05T04:27:13.274Z,97368.23
2019-03-05T04:29:46.943Z,97370.25
2019-03-05T04:32:23.687Z,97368.45
2019-03-05T04:34:56.489Z,97361.73
2019-03-05T04:37:29.927Z,97358.01
2019-03-05T04:40:03.258Z,97363.83
2019-03-05T04:42:34.961Z,97363.51
2019-03-05T04:45:23.087Z,97366.89
2019-03-05T04:47:56.395Z,97369.52
2019-03-05T04:50:36.768Z,97373.59
2019-03-05T04:53:10.180Z,97368.83
2019-03-05T04:55:43.665Z,97366.82
2019-03-05T04:58:17.587Z,97366.89
2019-03-05T05:00:50.445Z,97372.36
2019-03-05T05:03:24.316Z,97375.32
2019-03-05T05:05:58.098Z,97372.63
2019-03-05T05:08:31.532Z,97366.45
2019-03-05T05:11:09.397Z,97363.98
2019-03-05T05:13:43.509Z,97364.52
2019-03-05T05:16:17.208Z,97369.64
2019-03-05T05:18:51.210Z,97368.14
2019-03-05T05:21:24.479Z,97367.98
2019-03-05T05:23:59.124Z,97374.71
2019-03-05T05:26:34.070Z,97378.66
2019-03-05T05:29:07.518Z,97374.98
2019-03-05T05:31:39.697Z,97390.53
2019-03-05T05:34:13.139Z,97393.98
2019-03-05T05:36:46.893Z,97400.95
2019-03-05T05:40:14.292Z,97404.02
2019-03-05T05:42:48.007Z,97408.46
2019-03-05T05:45:22.085Z,97409.91
2019-03-05T05:47:55.024Z,97422.38
2019-03-05T05:50:28.891Z,97412.13
2019-03-05T05:53:03.082Z,97413.50
2019-03-05T05:55:36.788Z,97415.88
2019-03-05T05:58:10.653Z,97426.56
2019-03-05T06:00:49.392Z,97432.08
2019-03-05T06:03:23.454Z,97431.69
2019-03-05T06:05:57.544Z,97431.89
2019-03-05T06:08:30.787Z,97434.18
2019-03-05T06:11:03.574Z,97430.11
2019-03-05T06:13:36.504Z,97437.75
2019-03-05T06:16:09.982Z,97431.71
2019-03-05T06:18:43.783Z,97438.20
2019-03-05T06:21:17.533Z,97438.72
2019-03-05T06:23:51.643Z,97437.59
2019-03-05T06:26:25.321Z,97438.19
2019-03-05T06:28:58.807Z,97441.47
2019-03-05T06:31:30.548Z,97435.48
2019-03-05T06:34:03.547Z,97424.13
2019-03-05T06:36:56.672Z,97436.45
2019-03-05T06:39:29.111Z,97435.30
2019-03-05T06:42:03.018Z,97434.96
2019-03-05T06:44:37.052Z,97429.45
2019-03-05T06:47:10.607Z,97438.53
2019-03-05T06:49:46.149Z,97434.45
2019-03-05T06:52:18.998Z,97440.77
2019-03-05T06:54:52.378Z,97432.96
2019-03-05T06:57:25.375Z,97444.10
2019-03-05T06:59:58.413Z,97441.94
2019-03-05T07:02:31.451Z,97451.55
2019-03-05T07:05:04.794Z,97445.29
2019-03-05T07:07:39.975Z,97456.68
2019-03-05T07:11:06.104Z,97455.97
2019-03-05T07:13:39.433Z,97456.14
2019-03-05T07:16:30.783Z,97452.60
2019-03-05T07:19:32.495Z,97459.38
2019-03-05T07:22:48.493Z,97460.92
2019-03-05T07:25:22.345Z,97459.04
2019-03-05T07:27:59.484Z,97477.68
2019-03-05T07:30:33.391Z,97488.76
2019-03-05T07:33:07.209Z,97489.52
2019-03-05T07:35:41.658Z,97496.59
2019-03-05T07:38:16.087Z,97497.48
2019-03-05T07:40:49.466Z,97490.29
2019-03-05T07:43:22.185Z,97491.88
2019-03-05T07:45:56.698Z,97495.59
2019-03-05T07:48:31.204Z,97488.12
2019-03-05T07:51:04.577Z,97496.35
2019-03-05T07:53:37.988Z,97496.07
2019-03-05T07:56:12.123Z,97497.72
2019-03-05T07:58:46.150Z,97500.83
2019-03-05T08:01:22.585Z,97505.59
2019-03-05T08:03:55.136Z,97502.67
2019-03-05T08:06:27.603Z,97495.73
2019-03-05T08:09:43.110Z,97500.34
2019-03-05T08:13:09.595Z,97507.51
2019-03-05T08:16:02.426Z,97514.13
2019-03-05T08:18:56.337Z,97502.27
2019-03-05T08:21:30.395Z,97504.28
2019-03-05T08:24:03.858Z,97512.19
2019-03-05T08:26:35.213Z,97522.73
2019-03-05T08:29:08.094Z,97530.87
2019-03-05T08:31:39.947Z,97522.61
2019-03-05T08:34:13.730Z,97523.72
2019-03-05T08:36:47.703Z,97523.23
2019-03-05T08:39:21.476Z,97511.11
2019-03-05T08:41:56.439Z,97524.52
2019-03-05T08:44:30.756Z,97533.89
2019-03-05T08:47:04.342Z,97532.80
2019-03-05T08:49:37.959Z,97525.08
2019-03-05T08:52:11.791Z,97532.07
2019-03-05T08:54:45.550Z,97530.09
2019-03-05T08:57:19.929Z,97527.91
2019-03-05T08:59:54.834Z,97520.32
2019-03-05T09:02:28.833Z,97518.89
2019-03-05T09:05:02.350Z,97525.16
2019-03-05T09:07:33.656Z,97523.58
2019-03-05T09:10:09.488Z,97524.27
2019-03-05T09:12:42.593Z,97520.34
2019-03-05T09:15:18.163Z,97514.51
2019-03-05T09:17:51.618Z,97510.09
2019-03-05T09:20:23.187Z,97520.21
2019-03-05T09:22:55.769Z,97512.02
2019-03-05T09:25:29.271Z,97512.41
2019-03-05T09:28:03.193Z,97510.64
2019-03-05T09:30:36.952Z,97508.56
2019-03-05T09:33:10.675Z,97502.29
2019-03-05T09:35:43.982Z,97511.08
2019-03-05T09:38:18.296Z,97512.55
2019-03-05T09:40:51.405Z,97511.67
2019-03-05T09:43:25.272Z,97511.00
2019-03-05T09:45:59.062Z,97510.76
2019-03-05T09:48:32.691Z,97507.80
2019-03-05T09:51:05.971Z,97505.81
2019-03-05T09:53:39.464Z,97513.82
2019-03-05T09:56:13.515Z,97506.59
2019-03-05T09:58:46.909Z,97510.59
2019-03-05T10:01:19.782Z,97507.11
2019-03-05T10:03:53.418Z,97514.53
2019-03-05T10:06:28.017Z,97514.58
2019-03-05T10:09:02.227Z,97510.59
2019-03-05T10:11:35.964Z,97521.81
2019-03-05T10:14:09.532Z,97515.42
2019-03-05T10:16:42.479Z,97528.19
2019-03-05T10:19:16.516Z,97532.85
2019-03-05T10:21:51.189Z,97515.02
2019-03-05T10:24:24.868Z,97526.56
2019-03-05T10:26:58.384Z,97524.52
2019-03-05T10:29:30.352Z,97524.20
2019-03-05T10:32:03.530Z,97515.58
2019-03-05T10:34:37.892Z,97529.02
2019-03-05T10:37:18.581Z,97531.99
2019-03-05T10:39:47.412Z,97521.56
2019-03-05T10:42:20.707Z,97518.45
2019-03-05T10:44:55.447Z,97518.16
2019-03-05T10:47:29.459Z,97522.45
2019-03-05T10:50:03.162Z,97515.80
2019-03-05T10:52:37.326Z,97499.26
2019-03-05T10:55:11.591Z,97492.48
2019-03-05T10:57:45.813Z,97499.93
2019-03-05T11:00:24.978Z,97486.44
2019-03-05T11:02:59.424Z,97495.09
2019-03-05T11:05:37.563Z,97492.63
2019-03-05T11:08:16.439Z,97485.53
2019-03-05T11:10:50.933Z,97477.43
2019-03-05T11:13:24.824Z,97471.80
2019-03-05T11:15:59.438Z,97478.40
2019-03-05T11:18:33.942Z,97466.12
2019-03-05T11:21:08.322Z,97465.30
2019-03-05T11:23:42.192Z,97474.09
2019-03-05T11:26:16.326Z,97461.52
2019-03-05T11:28:54.663Z,97469.14
2019-03-05T11:31:28.071Z,97476.75
2019-03-05T11:33:59.718Z,97470.62
2019-03-05T11:36:33.553Z,97458.36
2019-03-05T11:39:09.172Z,97465.29
2019-03-05T11:41:43.474Z,97467.56
2019-03-05T11:44:17.631Z,97443.03
2019-03-05T11:46:51.648Z,97462.17
2019-03-05T11:49:25.431Z,97447.80
2019-03-05T11:51:59.660Z,97464.57
2019-03-05T11:54:33.424Z,97449.12
2019-03-05T11:57:07.120Z,97451.81
2019-03-05T11:59:40.157Z,97449.32
2019-03-05T12:02:21.512Z,97450.17
2019-03-05T12:04:51.593Z,97470.30
2019-03-05T12:07:25.863Z,97456.97
2019-03-05T12:10:00.145Z,97466.09
2019-03-05T12:12:34.618Z,97468.63
2019-03-05T12:15:12.617Z,97477.19
2019-03-05T12:17:46.972Z,97473.53
2019-03-05T12:20:23.475Z,97480.36
2019-03-05T12:22:58.049Z,97477.71
2019-03-05T12:25:31.565Z,97477.56
2019-03-05T12:28:10.418Z,97479.56
2019-03-05T12:30:41.748Z,97487.03
2019-03-05T12:33:15.724Z,97486.36
2019-03-05T12:35:50.161Z,97501.77
2019-03-05T12:38:23.568Z,97496.77
2019-03-05T12:40:55.420Z,97487.19
2019-03-05T12:43:28.408Z,97491.94
2019-03-05T12:46:01.735Z,97492.16
2019-03-05T12:48:40.343Z,97485.61
2019-03-05T12:51:12.653Z,97482.09
2019-03-05T12:53:45.931Z,97466.20
2019-03-05T12:56:23.972Z,97477.91
2019-03-05T12:58:55.224Z,97472.91
2019-03-05T13:01:28.934Z,97468.59
2019-03-05T13:04:03.175Z,97472.24
2019-03-05T13:06:37.105Z,97463.11
2019-03-05T13:09:19.569Z,97468.27
2019-03-05T13:11:52.985Z,97467.16
2019-03-05T13:14:26.819Z,97471.73
2019-03-05T13:17:00.243Z,97466.23
2019-03-05T13:19:32.893Z,97469.98
2019-03-05T13:22:05.194Z,97475.89
2019-03-05T13:24:38.571Z,97486.05
2019-03-05T13:27:11.843Z,97486.21
2019-03-05T13:29:45.182Z,97486.67
2019-03-05T13:32:20.774Z,97489.19
2019-03-05T13:34:55.305Z,97500.08
2019-03-05T13:37:29.515Z,97504.30
2019-03-05T13:40:02.888Z,97522.11
2019-03-05T13:42:36.600Z,97515.77
2019-03-05T13:45:10.579Z,97510.21
2019-03-05T13:47:48.301Z,97512.77
2019-03-05T13:50:57.171Z,97513.41
2019-03-05T13:54:48.502Z,97505.78
2019-03-05T13:58:18.135Z,97507.77
2019-03-05T14:00:51.533Z,97515.36
2019-03-05T14:03:37.199Z,97522.00
2019-03-05T14:07:36.448Z,97522.36
2019-03-05T14:10:18.619Z,97524.59
2019-03-05T14:13:02.350Z,97529.53
2019-03-05T14:15:38.249Z,97534.56
2019-03-05T14:18:12.834Z,97536.88
2019-03-05T14:20:57.857Z,97544.05
2019-03-05T14:23:36.591Z,97548.36
2019-03-05T14:26:15.734Z,97551.14
2019-03-05T14:28:53.537Z,97551.40
2019-03-05T14:31:31.800Z,97558.25
2019-03-05T14:34:05.321Z,97553.80
2019-03-05T14:36:37.381Z,97558.98
2019-03-05T14:39:25.995Z,97549.82
2019-03-05T14:42:00.503Z,97550.92
2019-03-05T14:44:39.926Z,97550.23
2019-03-05T14:47:10.200Z,97560.70
2019-03-05T14:49:43.828Z,97568.08
2019-03-05T14:52:18.173Z,97575.92
2019-03-05T14:54:52.428Z,97567.89
2019-03-05T14:57:26.137Z,97579.66
2019-03-05T14:59:59.974Z,97577.23
2019-03-05T15:02:33.519Z,97591.42
2019-03-05T15:05:05.281Z,97584.86
2019-03-05T15:07:38.336Z,97579.55
2019-03-05T15:10:12.660Z,97582.66
2019-03-05T15:12:47.148Z,97594.67
2019-03-05T15:15:25.299Z,97589.47
2019-03-05T15:17:58.586Z,97597.93
2019-03-05T15:20:32.200Z,97585.22
2019-03-05T15:23:06.845Z,97599.42
2019-03-05T15:25:40.831Z,97598.39
2019-03-05T15:28:14.251Z,97605.68
2019-03-05T15:30:45.622Z,97600.84
2019-03-05T15:33:18.754Z,97607.29
2019-03-05T15:35:51.867Z,97608.84
2019-03-05T15:38:25.701Z,97611.86
2019-03-05T15:40:59.797Z,97604.94
2019-03-05T15:43:34.769Z,97606.40
2019-03-05T15:46:08.769Z,97616.83
2019-03-05T15:48:42.605Z,97610.44
2019-03-05T15:51:16.152Z,97619.88
2019-03-05T15:53:49.412Z,97620.77
2019-03-05T15:56:23.357Z,97613.28
2019-03-05T15:58:57.122Z,97615.48
2019-03-05T16:01:30.640Z,97622.13
2019-03-05T16:04:02.600Z,97616.52
2019-03-05T16:06:35.324Z,97618.82
2019-03-05T16:09:17.760Z,97622.41
2019-03-05T16:11:52.290Z,97612.70
2019-03-05T16:14:29.590Z,97618.68
2019-03-05T16:17:01.772Z,97624.91
2019-03-05T16:19:35.189Z,97618.82
2019-03-05T16:22:08.997Z,97628.05
2019-03-05T16:24:44.036Z,97620.77
2019-03-05T16:27:22.858Z,97639.78
2019-03-05T16:29:57.148Z,97643.38
2019-03-05T16:32:43.832Z,97657.27
2019-03-05T16:35:37.060Z,97652.97
2019-03-05T16:38:38.375Z,97667.30
2019-03-05T16:41:31.214Z,97671.91
2019-03-05T16:44:26.311Z,97678.36
2019-03-05T16:47:17.700Z,97681.14
2019-03-05T16:50:20.358Z,97684.20
2019-03-05T16:53:00.759Z,97691.14
2019-03-05T16:55:45.626Z,97701.55
2019-03-05T16:58:47.382Z,97708.79
2019-03-05T17:01:42.760Z,97710.53
2019-03-05T17:04:35.046Z,97710.30
2019-03-05T17:07:39.139Z,97722.54
2019-03-05T17:10:37.617Z,97732.44
2019-03-05T17:13:11.582Z,97733.51
2019-03-05T17:15:45.110Z,97741.75
2019-03-05T17:18:17.011Z,97741.84
2019-03-05T17:20:50.389Z,97737.27
2019-03-05T17:23:23.902Z,97749.75
2019-03-05T17:25:55.648Z,97752.02
2019-03-05T17:28:28.680Z,97764.16
2019-03-05T17:31:02.019Z,97766.43
2019-03-05T17:33:35.043Z,97771.98
2019-03-05T17:36:06.369Z,97769.98
2019-03-05T17:38:39.399Z,97770.94
2019-03-05T17:41:13.274Z,97780.03
2019-03-05T17:43:48.041Z,97789.83
2019-03-05T17:46:22.306Z,97792.17
2019-03-05T17:48:55.835Z,97794.94
2019-03-05T17:51:28.429Z,97799.88
2019-03-05T17:54:02.591Z,97798.22
2019-03-05T17:56:36.989Z,97800.86
2019-03-05T17:59:11.837Z,97801.67
2019-03-05T18:01:45.866Z,97809.34
2019-03-05T18:04:19.788Z,97809.75
2019-03-05T18:06:52.538Z,97812.41
2019-03-05T18:09:28.731Z,97817.34
2019-03-05T18:12:02.475Z,97819.39
2019-03-05T18:14:36.872Z,97827.56
2019-03-05T18:17:10.918Z,97832.50
2019-03-05T18:19:44.430Z,97836.52
2019-03-05T18:22:16.027Z,97842.69
2019-03-05T18:24:49.584Z,97848.37
2019-03-05T18:27:23.665Z,97844.73
2019-03-05T18:29:57.483Z,97847.82
2019-03-05T18:32:31.531Z,97851.40
2019-03-05T18:35:05.853Z,97848.69
2019-03-05T18:37:39.311Z,97848.95
2019-03-05T18:40:12.897Z,97847.97
2019-03-05T18:42:45.809Z,97848.80
2019-03-05T18:45:19.986Z,97848.69
2019-03-05T18:47:53.732Z,97851.16
2019-03-05T18:50:27.826Z,97848.44
2019-03-05T18:53:02.357Z,97854.74
2019-03-05T18:55:35.995Z,97859.63
2019-03-05T18:58:09.620Z,97864.02
2019-03-05T19:00:43.739Z,97864.18
2019-03-05T19:03:18.475Z,97864.48
2019-03-05T19:05:52.322Z,97867.15
2019-03-05T19:08:26.435Z,97867.96
2019-03-05T19:11:26.085Z,97871.14
2019-03-05T19:14:02.515Z,97876.43
2019-03-05T19:16:36.164Z,97886.11
2019-03-05T19:19:12.347Z,97891.77
2019-03-05T19:21:48.707Z,97892.89
2019-03-05T19:24:22.828Z,97908.93
2019-03-05T19:26:56.947Z,97900.13
2019-03-05T19:29:29.954Z,97899.81
2019-03-05T19:32:04.169Z,97904.10
2019-03-05T19:34:38.179Z,97911.31
2019-03-05T19:37:12.112Z,97921.52
2019-03-05T19:39:47.053Z,97920.11
2019-03-05T19:42:20.476Z,97922.41
2019-03-05T19:44:52.872Z,97925.06
2019-03-05T19:47:26.329Z,97930.18
2019-03-05T19:50:00.518Z,97927.08
2019-03-05T19:52:34.711Z,97929.09
2019-03-05T19:55:10.431Z,97936.27
2019-03-05T19:57:45.976Z,97933.03
2019-03-05T20:00:31.317Z,97932.80
2019-03-05T20:03:05.067Z,97934.48
2019-03-05T20:05:40.153Z,97939.73
2019-03-05T20:08:14.814Z,97950.09
2019-03-05T20:10:48.548Z,97957.61
2019-03-05T20:13:22.445Z,97956.04
2019-03-05T20:15:56.118Z,97960.20
2019-03-05T20:18:29.967Z,97957.35
2019-03-05T20:21:03.689Z,97962.48
2019-03-05T20:23:37.108Z,97963.91
2019-03-05T20:26:09.825Z,97963.10
2019-03-05T20:28:43.392Z,97965.30
2019-03-05T20:31:16.663Z,97969.89
2019-03-05T20:33:50.424Z,97983.11
2019-03-05T20:36:24.438Z,97985.17
2019-03-05T20:38:58.651Z,97977.77
2019-03-05T20:41:33.033Z,97987.47
2019-03-05T20:44:06.660Z,97989.27
2019-03-05T20:46:39.139Z,97992.33
2019-03-05T20:49:12.824Z,97994.78
2019-03-05T20:51:47.259Z,97992.52
2019-03-05T20:54:21.714Z,97994.27
2019-03-05T20:56:55.621Z,98001.05
2019-03-05T20:59:30.207Z,98007.48
2019-03-05T21:02:03.680Z,98011.59
2019-03-05T21:04:36.756Z,98010.15
2019-03-05T21:07:10.466Z,98012.89
2019-03-05T21:09:43.420Z,98018.71
2019-03-05T21:12:18.340Z,98017.36
2019-03-05T21:14:51.765Z,98013.83
2019-03-05T21:17:25.338Z,98015.06
2019-03-05T21:19:59.955Z,98009.79
2019-03-05T21:22:35.543Z,98020.26
2019-03-05T21:25:10.294Z,98014.60
2019-03-05T21:27:44.201Z,98013.65
2019-03-05T21:30:19.667Z,98014.08
2019-03-05T21:32:53.170Z,98010.42
2019-03-05T21:35:26.659Z,98016.97
2019-03-05T21:38:00.882Z,98016.06
2019-03-05T21:40:34.213Z,98016.94
2019-03-05T21:43:07.789Z,98015.03
2019-03-05T21:45:41.574Z,98022.39
2019-03-05T21:48:15.979Z,98019.48
2019-03-05T21:50:54.051Z,98021.98
2019-03-05T21:53:27.955Z,98030.91
2019-03-05T21:56:02.142Z,98032.44
2019-03-05T21:58:35.802Z,98031.70
2019-03-05T22:01:07.500Z,98032.35
2019-03-05T22:03:40.546Z,98042.81
2019-03-05T22:06:14.290Z,98037.06
2019-03-05T22:08:48.059Z,98044.27
2019-03-05T22:11:21.534Z,98045.22
2019-03-05T22:13:55.286Z,98048.08
2019-03-05T22:16:29.445Z,98047.73
2019-03-05T22:19:03.588Z,98046.88
2019-03-05T22:21:37.684Z,98048.97
2019-03-05T22:24:11.764Z,98048.98
2019-03-05T22:26:44.811Z,98045.18
2019-03-05T22:29:18.523Z,98042.00
2019-03-05T22:31:51.769Z,98040.44
2019-03-05T22:34:25.542Z,98047.84
2019-03-05T22:36:59.524Z,98045.73
2019-03-05T22:39:33.528Z,98051.82
2019-03-05T22:42:07.251Z,98057.14
2019-03-05T22:44:41.445Z,98051.91
2019-03-05T22:47:14.488Z,98045.06
2019-03-05T22:49:46.501Z,98052.06
2019-03-05T22:52:19.008Z,98048.19
2019-03-05T22:54:54.021Z,98056.06
2019-03-05T22:57:26.817Z,98052.38
2019-03-05T23:00:01.099Z,98050.91
2019-03-05T23:02:35.426Z,98053.82
2019-03-05T23:05:10.826Z,98055.42
2019-03-05T23:07:45.151Z,98062.97
2019-03-05T23:10:20.247Z,98064.92
2019-03-05T23:12:54.669Z,98077.73
2019-03-05T23:15:28.313Z,98075.81
2019-03-05T23:18:01.198Z,98076.52
2019-03-05T23:20:34.128Z,98076.01
2019-03-05T23:23:07.062Z,98072.53
2019-03-05T23:25:40.671Z,98076.27
2019-03-05T23:28:14.443Z,98076.55
2019-03-05T23:30:48.042Z,98077.30
2019-03-05T23:33:22.350Z,98087.78
2019-03-05T23:35:55.102Z,98084.17
2019-03-05T23:38:28.270Z,98083.52
2019-03-05T23:41:01.381Z,98086.39
2019-03-05T23:43:34.159Z,98082.30
2019-03-05T23:46:07.668Z,98085.18
2019-03-05T23:48:40.708Z,98077.47
2019-03-05T23:51:13.530Z,98081.38
2019-03-05T23:53:49.508Z,98081.31
2019-03-05T23:56:22.833Z,98080.86
2019-03-05T23:58:55.801Z,98087.44
